sensor_id;sensor_type;location;lat;lon;timestamp;temperature;humidity
2767;DHT22;1391;46.74287300;11.63683300;2023-08-06T00:00:12;15.00;96.70
2767;DHT22;1391;46.74287300;11.63683300;2023-08-06T00:02:40;14.80;96.00
2767;DHT22;1391;46.74287300;11.63683300;2023-08-06T00:05:07;14.50;99.10
2767;DHT22;1391;46.74287300;11.63683300;2023-08-06T00:07:35;14.80;94.10
2767;DHT22;1391;46.74287300;11.63683300;2023-08-06T00:10:04;14.80;93.50
2767;DHT22;1391;46.74287300;11.63683300;2023-08-06T00:12:31;15.10;94.90
2767;DHT22;1391;46.74287300;11.63683300;2023-08-06T00:14:59;14.90;94.30
2767;DHT22;1391;46.74287300;11.63683300;2023-08-06T00:17:26;14.90;94.20
2767;DHT22;1391;46.74287300;11.63683300;2023-08-06T00:19:53;14.70;93.20
2767;DHT22;1391;46.74287300;11.63683300;2023-08-06T00:22:20;14.70;99.90
2767;DHT22;1391;46.74287300;11.63683300;2023-08-06T00:24:47;14.30;99.90
2767;DHT22;1391;46.74287300;11.63683300;2023-08-06T00:27:16;14.30;99.90
2767;DHT22;1391;46.74287300;11.63683300;2023-08-06T00:29:43;14.40;99.50
2767;DHT22;1391;46.74287300;11.63683300;2023-08-06T00:32:10;14.40;99.90
2767;DHT22;1391;46.74287300;11.63683300;2023-08-06T00:34:37;14.30;99.90
2767;DHT22;1391;46.74287300;11.63683300;2023-08-06T00:37:04;14.40;99.90
2767;DHT22;1391;46.74287300;11.63683300;2023-08-06T00:39:32;14.20;99.90
2767;DHT22;1391;46.74287300;11.63683300;2023-08-06T00:41:59;14.60;99.90
2767;DHT22;1391;46.74287300;11.63683300;2023-08-06T00:44:27;14.60;99.90
2767;DHT22;1391;46.74287300;11.63683300;2023-08-06T00:46:55;14.60;99.90
2767;DHT22;1391;46.74287300;11.63683300;2023-08-06T00:49:22;14.50;99.90
2767;DHT22;1391;46.74287300;11.63683300;2023-08-06T00:51:50;14.50;97.10
2767;DHT22;1391;46.74287300;11.63683300;2023-08-06T00:54:17;14.60;99.90
2767;DHT22;1391;46.74287300;11.63683300;2023-08-06T00:56:45;14.60;99.90
2767;DHT22;1391;46.74287300;11.63683300;2023-08-06T00:59:13;14.60;99.90
2767;DHT22;1391;46.74287300;11.63683300;2023-08-06T01:01:42;14.50;99.90
2767;DHT22;1391;46.74287300;11.63683300;2023-08-06T01:04:10;14.40;99.90
2767;DHT22;1391;46.74287300;11.63683300;2023-08-06T01:06:44;13.90;99.90
2767;DHT22;1391;46.74287300;11.63683300;2023-08-06T01:09:25;14.50;99.90
2767;DHT22;1391;46.74287300;11.63683300;2023-08-06T01:12:04;14.00;99.90
2767;DHT22;1391;46.74287300;11.63683300;2023-08-06T01:14:41;14.50;99.90
2767;DHT22;1391;46.74287300;11.63683300;2023-08-06T01:17:14;14.40;99.90
2767;DHT22;1391;46.74287300;11.63683300;2023-08-06T01:19:42;14.20;99.90
2767;DHT22;1391;46.74287300;11.63683300;2023-08-06T01:22:10;14.20;99.90
2767;DHT22;1391;46.74287300;11.63683300;2023-08-06T01:24:37;14.20;99.90
2767;DHT22;1391;46.74287300;11.63683300;2023-08-06T01:27:09;14.30;99.90
2767;DHT22;1391;46.74287300;11.63683300;2023-08-06T01:29:43;13.90;99.90
2767;DHT22;1391;46.74287300;11.63683300;2023-08-06T01:32:12;14.00;99.90
2767;DHT22;1391;46.74287300;11.63683300;2023-08-06T01:34:43;14.60;99.90
2767;DHT22;1391;46.74287300;11.63683300;2023-08-06T01:37:13;14.60;99.90
2767;DHT22;1391;46.74287300;11.63683300;2023-08-06T01:39:42;14.60;99.90
2767;DHT22;1391;46.74287300;11.63683300;2023-08-06T01:42:10;13.80;99.90
2767;DHT22;1391;46.74287300;11.63683300;2023-08-06T01:44:37;13.90;99.90
2767;DHT22;1391;46.74287300;11.63683300;2023-08-06T01:47:05;14.00;99.90
2767;DHT22;1391;46.74287300;11.63683300;2023-08-06T01:49:32;14.20;99.90
2767;DHT22;1391;46.74287300;11.63683300;2023-08-06T01:51:59;14.10;97.80
2767;DHT22;1391;46.74287300;11.63683300;2023-08-06T01:54:28;13.90;99.90
2767;DHT22;1391;46.74287300;11.63683300;2023-08-06T01:56:55;14.40;99.90
2767;DHT22;1391;46.74287300;11.63683300;2023-08-06T01:59:24;13.80;99.90
2767;DHT22;1391;46.74287300;11.63683300;2023-08-06T02:01:51;14.20;99.90
2767;DHT22;1391;46.74287300;11.63683300;2023-08-06T02:04:18;13.80;99.90
2767;DHT22;1391;46.74287300;11.63683300;2023-08-06T02:06:45;13.90;99.90
2767;DHT22;1391;46.74287300;11.63683300;2023-08-06T02:09:12;14.50;99.90
2767;DHT22;1391;46.74287300;11.63683300;2023-08-06T02:11:41;14.50;99.90
2767;DHT22;1391;46.74287300;11.63683300;2023-08-06T02:14:08;14.40;99.90
2767;DHT22;1391;46.74287300;11.63683300;2023-08-06T02:16:35;14.20;99.90
2767;DHT22;1391;46.74287300;11.63683300;2023-08-06T02:19:02;14.20;99.90
2767;DHT22;1391;46.74287300;11.63683300;2023-08-06T02:21:29;13.80;99.90
2767;DHT22;1391;46.74287300;11.63683300;2023-08-06T02:23:56;13.90;99.90
2767;DHT22;1391;46.74287300;11.63683300;2023-08-06T02:26:24;14.10;99.90
2767;DHT22;1391;46.74287300;11.63683300;2023-08-06T02:28:52;14.40;99.90
2767;DHT22;1391;46.74287300;11.63683300;2023-08-06T02:31:20;13.90;99.90
2767;DHT22;1391;46.74287300;11.63683300;2023-08-06T02:33:47;14.00;99.90
2767;DHT22;1391;46.74287300;11.63683300;2023-08-06T02:36:14;13.80;99.90
2767;DHT22;1391;46.74287300;11.63683300;2023-08-06T02:38:41;13.80;99.90
2767;DHT22;1391;46.74287300;11.63683300;2023-08-06T02:41:08;13.90;99.90
2767;DHT22;1391;46.74287300;11.63683300;2023-08-06T02:43:35;13.80;99.90
2767;DHT22;1391;46.74287300;11.63683300;2023-08-06T02:46:04;13.80;99.90
2767;DHT22;1391;46.74287300;11.63683300;2023-08-06T02:48:31;13.80;99.90
2767;DHT22;1391;46.74287300;11.63683300;2023-08-06T02:50:59;13.80;99.90
2767;DHT22;1391;46.74287300;11.63683300;2023-08-06T02:53:26;13.80;99.90
2767;DHT22;1391;46.74287300;11.63683300;2023-08-06T02:55:53;13.80;99.90
2767;DHT22;1391;46.74287300;11.63683300;2023-08-06T02:58:21;13.80;99.90
2767;DHT22;1391;46.74287300;11.63683300;2023-08-06T03:00:59;13.80;99.90
2767;DHT22;1391;46.74287300;11.63683300;2023-08-06T03:03:30;13.80;99.90
2767;DHT22;1391;46.74287300;11.63683300;2023-08-06T03:05:57;13.90;99.90
2767;DHT22;1391;46.74287300;11.63683300;2023-08-06T03:08:24;14.10;99.90
2767;DHT22;1391;46.74287300;11.63683300;2023-08-06T03:10:51;13.90;99.90
2767;DHT22;1391;46.74287300;11.63683300;2023-08-06T03:13:19;13.60;99.90
2767;DHT22;1391;46.74287300;11.63683300;2023-08-06T03:15:53;13.50;99.90
2767;DHT22;1391;46.74287300;11.63683300;2023-08-06T03:18:21;13.40;99.90
2767;DHT22;1391;46.74287300;11.63683300;2023-08-06T03:20:49;13.40;99.90
2767;DHT22;1391;46.74287300;11.63683300;2023-08-06T03:23:17;13.80;99.90
2767;DHT22;1391;46.74287300;11.63683300;2023-08-06T03:25:44;13.50;99.90
2767;DHT22;1391;46.74287300;11.63683300;2023-08-06T03:28:12;13.40;99.90
2767;DHT22;1391;46.74287300;11.63683300;2023-08-06T03:30:39;13.50;99.90
2767;DHT22;1391;46.74287300;11.63683300;2023-08-06T03:33:06;13.30;99.90
2767;DHT22;1391;46.74287300;11.63683300;2023-08-06T03:35:33;14.00;99.90
2767;DHT22;1391;46.74287300;11.63683300;2023-08-06T03:38:01;13.70;99.90
2767;DHT22;1391;46.74287300;11.63683300;2023-08-06T03:40:29;13.70;99.90
2767;DHT22;1391;46.74287300;11.63683300;2023-08-06T03:42:56;13.70;99.90
2767;DHT22;1391;46.74287300;11.63683300;2023-08-06T03:45:23;13.40;99.90
2767;DHT22;1391;46.74287300;11.63683300;2023-08-06T03:47:50;13.40;99.90
2767;DHT22;1391;46.74287300;11.63683300;2023-08-06T03:50:17;13.60;99.90
2767;DHT22;1391;46.74287300;11.63683300;2023-08-06T03:52:45;13.50;99.90
2767;DHT22;1391;46.74287300;11.63683300;2023-08-06T03:55:13;13.30;99.90
2767;DHT22;1391;46.74287300;11.63683300;2023-08-06T03:57:41;13.30;99.90
2767;DHT22;1391;46.74287300;11.63683300;2023-08-06T04:00:09;13.30;99.90
2767;DHT22;1391;46.74287300;11.63683300;2023-08-06T04:02:36;13.70;99.90
2767;DHT22;1391;46.74287300;11.63683300;2023-08-06T04:05:04;13.30;99.90
2767;DHT22;1391;46.74287300;11.63683300;2023-08-06T04:07:31;13.30;99.90
2767;DHT22;1391;46.74287300;11.63683300;2023-08-06T04:10:00;13.60;99.90
2767;DHT22;1391;46.74287300;11.63683300;2023-08-06T04:12:30;13.40;99.90
2767;DHT22;1391;46.74287300;11.63683300;2023-08-06T04:14:59;13.40;99.90
2767;DHT22;1391;46.74287300;11.63683300;2023-08-06T04:17:27;13.40;99.90
2767;DHT22;1391;46.74287300;11.63683300;2023-08-06T04:19:54;13.40;99.90
2767;DHT22;1391;46.74287300;11.63683300;2023-08-06T04:22:24;13.50;99.90
2767;DHT22;1391;46.74287300;11.63683300;2023-08-06T04:24:51;13.40;99.90
2767;DHT22;1391;46.74287300;11.63683300;2023-08-06T04:27:19;13.40;99.90
2767;DHT22;1391;46.74287300;11.63683300;2023-08-06T04:29:48;13.10;99.90
2767;DHT22;1391;46.74287300;11.63683300;2023-08-06T04:32:15;13.00;99.90
2767;DHT22;1391;46.74287300;11.63683300;2023-08-06T04:34:42;12.80;99.90
2767;DHT22;1391;46.74287300;11.63683300;2023-08-06T04:37:10;13.20;99.90
2767;DHT22;1391;46.74287300;11.63683300;2023-08-06T04:39:37;13.00;99.90
2767;DHT22;1391;46.74287300;11.63683300;2023-08-06T04:42:05;13.20;99.90
2767;DHT22;1391;46.74287300;11.63683300;2023-08-06T04:44:33;13.00;99.90
2767;DHT22;1391;46.74287300;11.63683300;2023-08-06T04:47:01;13.10;99.90
2767;DHT22;1391;46.74287300;11.63683300;2023-08-06T04:49:29;12.90;99.90
2767;DHT22;1391;46.74287300;11.63683300;2023-08-06T04:51:56;13.10;99.90
2767;DHT22;1391;46.74287300;11.63683300;2023-08-06T04:54:23;13.10;99.90
2767;DHT22;1391;46.74287300;11.63683300;2023-08-06T04:56:51;13.00;99.90
2767;DHT22;1391;46.74287300;11.63683300;2023-08-06T04:59:18;12.40;99.90
2767;DHT22;1391;46.74287300;11.63683300;2023-08-06T05:01:45;12.50;99.90
2767;DHT22;1391;46.74287300;11.63683300;2023-08-06T05:04:13;12.40;99.90
2767;DHT22;1391;46.74287300;11.63683300;2023-08-06T05:06:41;12.60;99.90
2767;DHT22;1391;46.74287300;11.63683300;2023-08-06T05:09:08;12.60;99.90
2767;DHT22;1391;46.74287300;11.63683300;2023-08-06T05:11:35;12.90;99.90
2767;DHT22;1391;46.74287300;11.63683300;2023-08-06T05:14:03;12.70;99.90
2767;DHT22;1391;46.74287300;11.63683300;2023-08-06T05:16:30;12.50;99.90
2767;DHT22;1391;46.74287300;11.63683300;2023-08-06T05:18:57;12.40;99.90
2767;DHT22;1391;46.74287300;11.63683300;2023-08-06T05:21:25;12.90;99.90
2767;DHT22;1391;46.74287300;11.63683300;2023-08-06T05:23:53;13.00;99.90
2767;DHT22;1391;46.74287300;11.63683300;2023-08-06T05:26:20;13.10;99.90
2767;DHT22;1391;46.74287300;11.63683300;2023-08-06T05:28:47;12.90;99.90
2767;DHT22;1391;46.74287300;11.63683300;2023-08-06T05:31:14;13.10;99.90
2767;DHT22;1391;46.74287300;11.63683300;2023-08-06T05:33:42;13.00;99.90
2767;DHT22;1391;46.74287300;11.63683300;2023-08-06T05:36:09;13.00;99.90
2767;DHT22;1391;46.74287300;11.63683300;2023-08-06T05:38:38;13.10;99.90
2767;DHT22;1391;46.74287300;11.63683300;2023-08-06T05:41:05;13.40;99.90
2767;DHT22;1391;46.74287300;11.63683300;2023-08-06T05:43:32;13.50;99.90
2767;DHT22;1391;46.74287300;11.63683300;2023-08-06T05:45:59;13.30;99.90
2767;DHT22;1391;46.74287300;11.63683300;2023-08-06T05:48:27;13.70;99.90
2767;DHT22;1391;46.74287300;11.63683300;2023-08-06T05:50:54;13.80;99.90
2767;DHT22;1391;46.74287300;11.63683300;2023-08-06T05:53:21;13.80;99.90
2767;DHT22;1391;46.74287300;11.63683300;2023-08-06T05:55:50;13.90;99.90
2767;DHT22;1391;46.74287300;11.63683300;2023-08-06T05:58:17;14.10;99.90
2767;DHT22;1391;46.74287300;11.63683300;2023-08-06T06:00:45;13.90;99.90
2767;DHT22;1391;46.74287300;11.63683300;2023-08-06T06:03:12;14.40;99.90
2767;DHT22;1391;46.74287300;11.63683300;2023-08-06T06:05:40;14.20;99.90
2767;DHT22;1391;46.74287300;11.63683300;2023-08-06T06:08:07;14.60;99.90
2767;DHT22;1391;46.74287300;11.63683300;2023-08-06T06:10:35;14.50;99.90
2767;DHT22;1391;46.74287300;11.63683300;2023-08-06T06:13:03;14.60;99.90
2767;DHT22;1391;46.74287300;11.63683300;2023-08-06T06:15:31;14.60;99.90
2767;DHT22;1391;46.74287300;11.63683300;2023-08-06T06:17:58;14.60;99.90
2767;DHT22;1391;46.74287300;11.63683300;2023-08-06T06:20:25;14.60;99.90
2767;DHT22;1391;46.74287300;11.63683300;2023-08-06T06:22:52;14.90;99.90
2767;DHT22;1391;46.74287300;11.63683300;2023-08-06T06:25:19;14.70;99.90
2767;DHT22;1391;46.74287300;11.63683300;2023-08-06T06:27:47;14.70;99.90
2767;DHT22;1391;46.74287300;11.63683300;2023-08-06T06:30:15;14.80;99.90
2767;DHT22;1391;46.74287300;11.63683300;2023-08-06T06:32:43;14.80;99.90
2767;DHT22;1391;46.74287300;11.63683300;2023-08-06T06:35:10;14.90;99.90
2767;DHT22;1391;46.74287300;11.63683300;2023-08-06T06:37:37;14.80;99.90
2767;DHT22;1391;46.74287300;11.63683300;2023-08-06T06:40:06;15.30;99.90
2767;DHT22;1391;46.74287300;11.63683300;2023-08-06T06:42:33;15.50;99.90
2767;DHT22;1391;46.74287300;11.63683300;2023-08-06T06:45:01;15.30;99.90
2767;DHT22;1391;46.74287300;11.63683300;2023-08-06T06:47:29;15.50;98.80
2767;DHT22;1391;46.74287300;11.63683300;2023-08-06T06:49:57;15.30;95.60
2767;DHT22;1391;46.74287300;11.63683300;2023-08-06T06:52:24;15.50;94.10
2767;DHT22;1391;46.74287300;11.63683300;2023-08-06T06:54:51;15.80;91.60
2767;DHT22;1391;46.74287300;11.63683300;2023-08-06T06:57:18;15.90;97.30
2767;DHT22;1391;46.74287300;11.63683300;2023-08-06T06:59:46;16.00;92.00
2767;DHT22;1391;46.74287300;11.63683300;2023-08-06T07:02:15;16.10;83.80
2767;DHT22;1391;46.74287300;11.63683300;2023-08-06T07:04:44;16.70;82.70
2767;DHT22;1391;46.74287300;11.63683300;2023-08-06T07:07:11;16.40;80.00
2767;DHT22;1391;46.74287300;11.63683300;2023-08-06T07:09:38;16.50;77.10
2767;DHT22;1391;46.74287300;11.63683300;2023-08-06T07:12:06;17.30;77.30
2767;DHT22;1391;46.74287300;11.63683300;2023-08-06T07:14:34;17.20;77.30
2767;DHT22;1391;46.74287300;11.63683300;2023-08-06T07:17:02;17.40;74.60
2767;DHT22;1391;46.74287300;11.63683300;2023-08-06T07:19:30;18.00;57.80
2767;DHT22;1391;46.74287300;11.63683300;2023-08-06T07:21:58;18.50;53.00
2767;DHT22;1391;46.74287300;11.63683300;2023-08-06T07:24:26;18.50;44.00
2767;DHT22;1391;46.74287300;11.63683300;2023-08-06T07:26:53;18.50;33.80
2767;DHT22;1391;46.74287300;11.63683300;2023-08-06T07:29:20;19.00;30.90
2767;DHT22;1391;46.74287300;11.63683300;2023-08-06T07:31:48;19.10;28.90
2767;DHT22;1391;46.74287300;11.63683300;2023-08-06T07:34:16;19.20;20.60
2767;DHT22;1391;46.74287300;11.63683300;2023-08-06T07:36:44;19.80;20.60
2767;DHT22;1391;46.74287300;11.63683300;2023-08-06T07:39:12;19.90;18.10
2767;DHT22;1391;46.74287300;11.63683300;2023-08-06T07:41:42;19.90;15.70
2767;DHT22;1391;46.74287300;11.63683300;2023-08-06T07:44:11;20.00;12.00
2767;DHT22;1391;46.74287300;11.63683300;2023-08-06T07:46:38;20.50;13.90
2767;DHT22;1391;46.74287300;11.63683300;2023-08-06T07:49:05;20.60;20.70
2767;DHT22;1391;46.74287300;11.63683300;2023-08-06T07:51:33;20.70;11.00
2767;DHT22;1391;46.74287300;11.63683300;2023-08-06T07:54:00;20.60;12.50
2767;DHT22;1391;46.74287300;11.63683300;2023-08-06T07:56:29;20.80;20.00
2767;DHT22;1391;46.74287300;11.63683300;2023-08-06T07:58:56;21.40;9.80
2767;DHT22;1391;46.74287300;11.63683300;2023-08-06T08:01:23;20.70;12.00
2767;DHT22;1391;46.74287300;11.63683300;2023-08-06T08:03:50;20.80;9.60
2767;DHT22;1391;46.74287300;11.63683300;2023-08-06T08:06:18;20.90;9.80
2767;DHT22;1391;46.74287300;11.63683300;2023-08-06T08:08:45;21.10;10.40
2767;DHT22;1391;46.74287300;11.63683300;2023-08-06T08:11:13;20.90;11.20
2767;DHT22;1391;46.74287300;11.63683300;2023-08-06T08:13:43;20.90;7.60
2767;DHT22;1391;46.74287300;11.63683300;2023-08-06T08:16:10;21.00;8.70
2767;DHT22;1391;46.74287300;11.63683300;2023-08-06T08:18:37;21.60;14.40
2767;DHT22;1391;46.74287300;11.63683300;2023-08-06T08:21:05;21.70;9.50
2767;DHT22;1391;46.74287300;11.63683300;2023-08-06T08:23:32;21.60;5.10
2767;DHT22;1391;46.74287300;11.63683300;2023-08-06T08:25:59;21.60;6.80
2767;DHT22;1391;46.74287300;11.63683300;2023-08-06T08:28:27;21.70;10.30
2767;DHT22;1391;46.74287300;11.63683300;2023-08-06T08:30:56;21.10;7.80
2767;DHT22;1391;46.74287300;11.63683300;2023-08-06T08:33:23;21.60;4.20
2767;DHT22;1391;46.74287300;11.63683300;2023-08-06T08:35:50;21.00;5.50
2767;DHT22;1391;46.74287300;11.63683300;2023-08-06T08:38:17;21.60;10.50
2767;DHT22;1391;46.74287300;11.63683300;2023-08-06T08:40:46;21.80;7.60
2767;DHT22;1391;46.74287300;11.63683300;2023-08-06T08:43:14;21.70;4.90
2767;DHT22;1391;46.74287300;11.63683300;2023-08-06T08:45:42;21.70;3.80
2767;DHT22;1391;46.74287300;11.63683300;2023-08-06T08:48:12;21.50;1.20
2767;DHT22;1391;46.74287300;11.63683300;2023-08-06T08:50:40;21.90;4.90
2767;DHT22;1391;46.74287300;11.63683300;2023-08-06T08:53:09;21.70;5.90
2767;DHT22;1391;46.74287300;11.63683300;2023-08-06T08:55:38;21.50;1.20
2767;DHT22;1391;46.74287300;11.63683300;2023-08-06T08:58:06;20.90;1.60
2767;DHT22;1391;46.74287300;11.63683300;2023-08-06T09:00:34;21.20;5.20
2767;DHT22;1391;46.74287300;11.63683300;2023-08-06T09:03:02;21.00;4.90
2767;DHT22;1391;46.74287300;11.63683300;2023-08-06T09:05:34;20.50;7.40
2767;DHT22;1391;46.74287300;11.63683300;2023-08-06T09:08:03;20.70;9.70
2767;DHT22;1391;46.74287300;11.63683300;2023-08-06T09:10:31;20.90;11.10
2767;DHT22;1391;46.74287300;11.63683300;2023-08-06T09:12:59;20.80;7.00
2767;DHT22;1391;46.74287300;11.63683300;2023-08-06T09:15:28;21.60;8.80
2767;DHT22;1391;46.74287300;11.63683300;2023-08-06T09:17:56;22.30;4.80
2767;DHT22;1391;46.74287300;11.63683300;2023-08-06T09:20:23;22.40;6.60
2767;DHT22;1391;46.74287300;11.63683300;2023-08-06T09:22:52;21.60;7.00
2767;DHT22;1391;46.74287300;11.63683300;2023-08-06T09:25:21;22.30;8.70
2767;DHT22;1391;46.74287300;11.63683300;2023-08-06T09:27:50;22.40;6.40
2767;DHT22;1391;46.74287300;11.63683300;2023-08-06T09:30:29;23.30;6.60
2767;DHT22;1391;46.74287300;11.63683300;2023-08-06T09:32:57;24.20;15.60
2767;DHT22;1391;46.74287300;11.63683300;2023-08-06T09:35:27;23.40;4.60
2767;DHT22;1391;46.74287300;11.63683300;2023-08-06T09:37:56;22.60;7.50
2767;DHT22;1391;46.74287300;11.63683300;2023-08-06T09:40:34;22.20;2.70
2767;DHT22;1391;46.74287300;11.63683300;2023-08-06T09:43:01;22.30;5.50
2767;DHT22;1391;46.74287300;11.63683300;2023-08-06T09:45:30;22.30;4.10
2767;DHT22;1391;46.74287300;11.63683300;2023-08-06T09:47:59;22.30;9.60
2767;DHT22;1391;46.74287300;11.63683300;2023-08-06T09:50:30;22.30;3.80
2767;DHT22;1391;46.74287300;11.63683300;2023-08-06T09:53:00;22.30;8.00
2767;DHT22;1391;46.74287300;11.63683300;2023-08-06T09:55:27;22.30;2.40
2767;DHT22;1391;46.74287300;11.63683300;2023-08-06T09:57:55;22.20;5.10
2767;DHT22;1391;46.74287300;11.63683300;2023-08-06T10:00:23;22.20;2.20
2767;DHT22;1391;46.74287300;11.63683300;2023-08-06T10:02:51;22.40;5.20
2767;DHT22;1391;46.74287300;11.63683300;2023-08-06T10:05:22;22.20;12.40
2767;DHT22;1391;46.74287300;11.63683300;2023-08-06T10:07:50;21.60;4.00
2767;DHT22;1391;46.74287300;11.63683300;2023-08-06T10:10:19;21.60;6.50
2767;DHT22;1391;46.74287300;11.63683300;2023-08-06T10:12:48;21.50;6.00
2767;DHT22;1391;46.74287300;11.63683300;2023-08-06T10:15:20;21.60;4.10
2767;DHT22;1391;46.74287300;11.63683300;2023-08-06T10:17:52;21.60;9.90
2767;DHT22;1391;46.74287300;11.63683300;2023-08-06T10:20:23;22.10;18.20
2767;DHT22;1391;46.74287300;11.63683300;2023-08-06T10:23:01;21.40;7.80
2767;DHT22;1391;46.74287300;11.63683300;2023-08-06T10:25:33;21.60;8.20
2767;DHT22;1391;46.74287300;11.63683300;2023-08-06T10:28:02;21.30;6.90
2767;DHT22;1391;46.74287300;11.63683300;2023-08-06T10:30:41;20.90;8.40
2767;DHT22;1391;46.74287300;11.63683300;2023-08-06T10:33:09;21.40;7.80
2767;DHT22;1391;46.74287300;11.63683300;2023-08-06T10:35:38;21.70;5.30
2767;DHT22;1391;46.74287300;11.63683300;2023-08-06T10:38:10;22.10;11.00
2767;DHT22;1391;46.74287300;11.63683300;2023-08-06T10:40:41;21.40;9.80
2767;DHT22;1391;46.74287300;11.63683300;2023-08-06T10:43:25;21.30;8.80
2767;DHT22;1391;46.74287300;11.63683300;2023-08-06T10:45:54;21.40;9.40
2767;DHT22;1391;46.74287300;11.63683300;2023-08-06T10:48:33;20.70;10.50
2767;DHT22;1391;46.74287300;11.63683300;2023-08-06T10:51:02;20.70;11.30
2767;DHT22;1391;46.74287300;11.63683300;2023-08-06T10:53:31;21.30;11.50
2767;DHT22;1391;46.74287300;11.63683300;2023-08-06T10:56:00;21.60;10.20
2767;DHT22;1391;46.74287300;11.63683300;2023-08-06T10:58:31;21.60;8.00
2767;DHT22;1391;46.74287300;11.63683300;2023-08-06T11:00:59;21.70;10.30
2767;DHT22;1391;46.74287300;11.63683300;2023-08-06T11:03:27;22.20;8.90
2767;DHT22;1391;46.74287300;11.63683300;2023-08-06T11:05:54;22.30;10.80
2767;DHT22;1391;46.74287300;11.63683300;2023-08-06T11:08:25;21.40;11.00
2767;DHT22;1391;46.74287300;11.63683300;2023-08-06T11:10:53;21.50;9.80
2767;DHT22;1391;46.74287300;11.63683300;2023-08-06T11:13:22;21.50;7.40
2767;DHT22;1391;46.74287300;11.63683300;2023-08-06T11:15:52;21.30;10.20
2767;DHT22;1391;46.74287300;11.63683300;2023-08-06T11:18:20;20.50;11.20
2767;DHT22;1391;46.74287300;11.63683300;2023-08-06T11:20:47;20.20;9.90
2767;DHT22;1391;46.74287300;11.63683300;2023-08-06T11:23:14;19.90;10.20
2767;DHT22;1391;46.74287300;11.63683300;2023-08-06T11:25:44;19.80;10.70
2767;DHT22;1391;46.74287300;11.63683300;2023-08-06T11:28:12;19.80;9.40
2767;DHT22;1391;46.74287300;11.63683300;2023-08-06T11:30:40;19.90;10.00
2767;DHT22;1391;46.74287300;11.63683300;2023-08-06T11:33:08;19.90;11.10
2767;DHT22;1391;46.74287300;11.63683300;2023-08-06T11:35:36;20.00;8.30
2767;DHT22;1391;46.74287300;11.63683300;2023-08-06T11:38:03;20.50;8.50
2767;DHT22;1391;46.74287300;11.63683300;2023-08-06T11:40:31;20.90;10.80
2767;DHT22;1391;46.74287300;11.63683300;2023-08-06T11:42:59;21.40;9.50
2767;DHT22;1391;46.74287300;11.63683300;2023-08-06T11:45:26;21.40;10.20
2767;DHT22;1391;46.74287300;11.63683300;2023-08-06T11:47:55;21.40;8.90
2767;DHT22;1391;46.74287300;11.63683300;2023-08-06T11:50:23;21.40;8.00
2767;DHT22;1391;46.74287300;11.63683300;2023-08-06T11:52:53;21.50;7.70
2767;DHT22;1391;46.74287300;11.63683300;2023-08-06T11:55:23;22.10;7.60
2767;DHT22;1391;46.74287300;11.63683300;2023-08-06T11:57:51;21.70;10.40
2767;DHT22;1391;46.74287300;11.63683300;2023-08-06T12:00:19;22.10;7.00
2767;DHT22;1391;46.74287300;11.63683300;2023-08-06T12:02:48;22.20;9.50
2767;DHT22;1391;46.74287300;11.63683300;2023-08-06T12:05:20;22.20;8.40
2767;DHT22;1391;46.74287300;11.63683300;2023-08-06T12:07:50;22.20;4.50
2767;DHT22;1391;46.74287300;11.63683300;2023-08-06T12:10:19;22.10;4.00
2767;DHT22;1391;46.74287300;11.63683300;2023-08-06T12:12:47;22.30;10.30
2767;DHT22;1391;46.74287300;11.63683300;2023-08-06T12:15:16;21.10;13.10
2767;DHT22;1391;46.74287300;11.63683300;2023-08-06T12:17:43;21.50;12.90
2767;DHT22;1391;46.74287300;11.63683300;2023-08-06T12:20:10;21.40;10.80
2767;DHT22;1391;46.74287300;11.63683300;2023-08-06T12:22:39;22.30;7.80
2767;DHT22;1391;46.74287300;11.63683300;2023-08-06T12:25:08;21.50;7.70
2767;DHT22;1391;46.74287300;11.63683300;2023-08-06T12:27:38;21.30;8.60
2767;DHT22;1391;46.74287300;11.63683300;2023-08-06T12:30:06;20.80;10.80
2767;DHT22;1391;46.74287300;11.63683300;2023-08-06T12:32:34;21.40;12.80
2767;DHT22;1391;46.74287300;11.63683300;2023-08-06T12:35:02;21.40;12.10
2767;DHT22;1391;46.74287300;11.63683300;2023-08-06T12:37:30;21.50;9.80
2767;DHT22;1391;46.74287300;11.63683300;2023-08-06T12:39:59;21.50;11.70
2767;DHT22;1391;46.74287300;11.63683300;2023-08-06T12:42:26;21.50;11.30
2767;DHT22;1391;46.74287300;11.63683300;2023-08-06T12:44:53;21.40;11.90
2767;DHT22;1391;46.74287300;11.63683300;2023-08-06T12:47:20;21.00;11.20
2767;DHT22;1391;46.74287300;11.63683300;2023-08-06T12:49:48;21.40;12.00
2767;DHT22;1391;46.74287300;11.63683300;2023-08-06T12:52:16;21.10;12.10
2767;DHT22;1391;46.74287300;11.63683300;2023-08-06T12:54:45;21.20;13.40
2767;DHT22;1391;46.74287300;11.63683300;2023-08-06T12:57:14;20.50;15.70
2767;DHT22;1391;46.74287300;11.63683300;2023-08-06T12:59:41;20.70;18.70
2767;DHT22;1391;46.74287300;11.63683300;2023-08-06T13:02:08;20.00;13.50
2767;DHT22;1391;46.74287300;11.63683300;2023-08-06T13:04:35;20.00;8.00
2767;DHT22;1391;46.74287300;11.63683300;2023-08-06T13:07:02;19.90;12.80
2767;DHT22;1391;46.74287300;11.63683300;2023-08-06T13:09:31;20.00;9.20
2767;DHT22;1391;46.74287300;11.63683300;2023-08-06T13:11:59;19.80;11.30
2767;DHT22;1391;46.74287300;11.63683300;2023-08-06T13:14:32;19.70;14.80
2767;DHT22;1391;46.74287300;11.63683300;2023-08-06T13:16:59;19.20;16.20
2767;DHT22;1391;46.74287300;11.63683300;2023-08-06T13:19:27;18.90;15.70
2767;DHT22;1391;46.74287300;11.63683300;2023-08-06T13:22:02;17.90;17.10
2767;DHT22;1391;46.74287300;11.63683300;2023-08-06T13:24:32;18.00;24.40
2767;DHT22;1391;46.74287300;11.63683300;2023-08-06T13:27:00;17.70;23.00
2767;DHT22;1391;46.74287300;11.63683300;2023-08-06T13:29:28;17.90;23.20
2767;DHT22;1391;46.74287300;11.63683300;2023-08-06T13:31:57;18.00;28.60
2767;DHT22;1391;46.74287300;11.63683300;2023-08-06T13:34:24;18.40;33.20
2767;DHT22;1391;46.74287300;11.63683300;2023-08-06T13:36:51;18.70;28.00
2767;DHT22;1391;46.74287300;11.63683300;2023-08-06T13:39:19;18.40;25.20
2767;DHT22;1391;46.74287300;11.63683300;2023-08-06T13:41:46;18.70;22.50